Time;durP1;ratioP1;P1;durP2;ratioP2;P2;SDS_P1;SDS_P2;PMS_P1;PMS_P2;Temp;Humidity;BMP_temperature;BMP_pressure;BME280_temperature;BME280_humidity;BME280_pressure;Samples;Min_cycle;Max_cycle;Signal;HPM_P1;HPM_P2
2022/05/30 00:00:33;;;;;;;71.07;31.40;;;;;;;20.17;100.00;100425.40;1719645;81;21861;-60
2022/05/30 00:03:00;;;;;;;76.53;35.17;;;;;;;20.79;95.32;100422.28;1719875;82;21960;-56
2022/05/30 00:05:30;;;;;;;85.60;38.57;;;;;;;20.97;91.89;100418.53;1719896;81;21567;-58
2022/05/30 00:07:58;;;;;;;89.93;41.50;;;;;;;20.97;91.89;100418.53;1726255;81;21389;-57
2022/05/30 00:10:27;;;;;;;101.03;43.13;;;;;;;21.11;91.11;100419.22;1717953;82;21505;-56
2022/05/30 00:12:55;;;;;;;91.80;42.97;;;;;;;21.46;85.21;100411.91;1726654;81;21360;-57
2022/05/30 00:15:23;;;;;;;93.70;42.83;;;;;;;21.08;88.25;100425.02;1724909;81;22133;-56
2022/05/30 00:17:55;;;;;;;104.40;47.20;;;;;;;21.08;88.25;100425.02;1734914;81;21486;-56
2022/05/30 00:20:23;;;;;;;104.67;49.57;;;;;;;21.28;86.98;100420.98;1720138;82;21773;-62
2022/05/30 00:22:50;;;;;;;96.13;43.00;;;;;;;21.32;86.89;100430.03;1733178;81;21473;-57
2022/05/30 00:25:18;;;;;;;78.70;35.70;;;;;;;21.46;85.07;100434.45;1734403;81;21470;-56
2022/05/30 00:27:46;;;;;;;63.47;30.67;;;;;;;21.45;83.77;100434.98;1721705;82;21470;-57
2022/05/30 00:30:14;;;;;;;51.70;27.77;;;;;;;21.43;85.02;100437.59;1720313;82;21533;-59
2022/05/30 00:32:40;;;;;;;63.43;30.13;;;;;;;21.57;82.17;100430.31;1717935;81;21507;-56
2022/05/30 00:35:09;;;;;;;67.83;29.80;;;;;;;21.57;82.17;100430.31;1731506;81;22792;-57
2022/05/30 00:37:37;;;;;;;63.17;31.00;;;;;;;21.37;83.80;100441.54;1732894;80;21464;-56
2022/05/30 00:40:05;;;;;;;60.27;28.40;;;;;;;21.37;83.80;100441.54;1724944;82;21542;-58
2022/05/30 00:42:34;;;;;;;59.60;27.40;;;;;;;21.29;84.35;100437.98;1722449;82;21739;-65
2022/05/30 00:45:02;;;;;;;55.37;27.50;;;;;;;21.51;81.63;100439.27;1728741;81;21585;-57
2022/05/30 00:47:30;;;;;;;48.50;25.83;;;;;;;21.62;80.33;100439.64;1728549;80;21135;-56
2022/05/30 00:49:57;;;;;;;45.63;23.23;;;;;;;21.42;82.57;100436.01;1718993;83;21527;-58
2022/05/30 00:52:38;;;;;;;44.60;22.30;;;;;;;21.42;82.57;100436.01;1727069;81;21952;-64
2022/05/30 00:55:15;;;;;;;46.73;22.65;;;;;;;21.47;81.60;100438.17;1732021;81;22182;-56
2022/05/30 00:57:43;;;;;;;43.27;21.27;;;;;;;21.57;80.28;100434.30;1726080;81;21204;-62
2022/05/30 01:00:19;;;;;;;47.23;22.03;;;;;;;21.41;82.06;100438.39;1724283;82;21434;-64
2022/05/30 01:06:30;;;;;;;42.20;20.17;;;;;;;21.37;83.26;100443.39;1731837;81;21901;-56
2022/05/30 01:08:04;;;;;;;40.13;19.20;;;;;;;21.54;80.55;100448.58;1728172;81;21749;-60
2022/05/30 01:10:33;;;;;;;36.50;19.27;;;;;;;21.32;82.45;100444.09;1725696;81;22224;-57
2022/05/30 01:13:01;;;;;;;38.37;18.90;;;;;;;21.32;82.45;100444.09;1735186;81;21517;-58
2022/05/30 01:15:30;;;;;;;36.33;16.87;;;;;;;21.36;82.72;100445.75;1684202;82;22446;-57
2022/05/30 01:18:06;;;;;;;29.33;15.27;;;;;;;20.47;94.96;100449.39;1715813;81;21618;-57
2022/05/30 01:21:27;;;;;;;32.20;16.73;;;;;;;20.26;98.26;100457.55;1708416;83;21457;-56
2022/05/30 01:24:23;;;;;;;31.13;15.50;;;;;;;20.26;98.26;100457.55;1720215;82;21787;-57
2022/05/30 01:27:35;;;;;;;27.43;15.43;;;;;;;21.05;91.31;100455.98;1746990;81;21542;-57
2022/05/30 01:30:08;;;;;;;23.80;13.20;;;;;;;20.30;99.06;100455.22;1749617;81;21497;-57
2022/05/30 01:32:35;;;;;;;24.90;11.87;;;;;;;20.30;99.06;100455.22;1716268;81;21552;-61
2022/05/30 01:35:03;;;;;;;20.23;10.57;;;;;;;20.27;99.82;100451.76;1736937;81;21470;-58
2022/05/30 01:37:32;;;;;;;17.70;9.57;;;;;;;20.30;100.00;100456.55;1734547;81;22034;-57
2022/05/30 01:40:00;;;;;;;16.80;8.97;;;;;;;20.32;100.00;100459.23;1722125;81;21408;-57
2022/05/30 01:42:28;;;;;;;17.13;8.03;;;;;;;20.40;99.48;100464.64;1715308;82;21473;-62
2022/05/30 01:44:56;;;;;;;14.70;7.50;;;;;;;20.50;97.94;100458.20;1737900;81;21670;-58
2022/05/30 01:47:24;;;;;;;13.63;6.20;;;;;;;20.50;97.94;100458.20;1725187;81;21586;-58
2022/05/30 01:49:52;;;;;;;11.37;6.00;;;;;;;20.45;98.68;100452.79;1734070;81;21326;-59
2022/05/30 01:52:21;;;;;;;10.17;5.20;;;;;;;20.66;97.04;100456.56;1728364;81;21385;-66
2022/05/30 01:54:49;;;;;;;8.93;4.97;;;;;;;20.66;97.04;100456.56;1695636;83;21698;-65
2022/05/30 01:57:30;;;;;;;9.85;4.58;;;;;;;20.82;95.59;100466.83;1700041;81;28429;-58
2022/05/30 02:00:07;;;;;;;8.53;4.43;;;;;;;21.20;94.72;100463.84;1711626;81;21053;-67
2022/05/30 02:02:49;;;;;;;8.70;4.40;;;;;;;21.20;94.72;100463.84;1740361;81;21535;-58
2022/05/30 02:05:17;;;;;;;8.20;4.37;;;;;;;21.74;88.04;100449.29;1742213;81;21482;-57
2022/05/30 02:07:44;;;;;;;7.83;4.10;;;;;;;21.74;88.04;100449.29;1737060;81;21785;-59
2022/05/30 02:10:14;;;;;;;8.57;4.80;;;;;;;21.84;85.89;100442.22;1731084;81;21693;-57
2022/05/30 02:12:41;;;;;;;6.27;4.20;;;;;;;21.59;88.90;100438.02;1734854;81;22032;-57
2022/05/30 02:15:13;;;;;;;7.17;4.33;;;;;;;21.70;87.75;100440.23;1716984;82;22180;-57
2022/05/30 02:17:41;;;;;;;7.90;4.83;;;;;;;21.62;88.32;100434.33;1722970;81;21007;-57
2022/05/30 02:20:09;;;;;;;9.07;5.00;;;;;;;21.83;85.45;100436.65;1725992;81;21659;-57
2022/05/30 02:22:38;;;;;;;8.67;4.47;;;;;;;21.89;82.90;100437.47;1719597;81;21017;-58
2022/05/30 02:25:07;;;;;;;8.87;5.23;;;;;;;21.80;83.78;100438.47;1744502;81;21760;-60
2022/05/30 02:27:35;;;;;;;10.50;5.30;;;;;;;22.06;81.86;100438.15;1729471;81;21174;-60
2022/05/30 02:30:03;;;;;;;9.70;5.77;;;;;;;22.29;78.21;100425.59;1718347;82;20944;-64
2022/05/30 02:32:30;;;;;;;12.80;6.87;;;;;;;22.45;76.59;100433.91;1706003;83;22259;-58
2022/05/30 02:37:44;;;;;;;14.87;7.03;;;;;;;22.87;73.34;100438.89;1720435;82;21731;-58
2022/05/30 02:40:31;;;;;;;11.37;6.63;;;;;;;23.05;70.37;100437.92;1644695;86;21225;-58
2022/05/30 02:43:17;;;;;;;14.47;8.50;;;;;;;23.46;67.40;100435.90;1653315;85;20957;-64
2022/05/30 02:45:46;;;;;;;17.73;9.30;;;;;;;23.70;64.52;100433.01;1681593;83;21062;-60
2022/05/30 02:48:13;;;;;;;19.73;11.13;;;;;;;24.32;60.25;100423.63;1714928;81;21438;-57
2022/05/30 02:50:41;;;;;;;27.10;12.47;;;;;;;24.81;56.28;100429.63;1694762;83;21285;-57
2022/05/30 02:53:08;;;;;;;27.60;13.77;;;;;;;24.99;54.11;100437.01;1739292;81;21480;-58
2022/05/30 02:55:37;;;;;;;33.17;14.93;;;;;;;25.30;52.95;100444.33;1731744;82;21125;-64
2022/05/30 02:58:05;;;;;;;33.93;16.60;;;;;;;25.54;51.66;100447.67;1738461;81;20999;-58
2022/05/30 03:00:32;;;;;;;30.87;15.57;;;;;;;25.65;50.47;100455.87;1734116;81;21031;-57
2022/05/30 03:03:01;;;;;;;36.67;18.87;;;;;;;25.76;49.79;100457.38;1735731;82;21030;-65
2022/05/30 03:05:30;;;;;;;35.73;19.30;;;;;;;25.79;48.82;100455.50;1682082;84;22321;-58
2022/05/30 03:07:59;;;;;;;39.90;19.00;;;;;;;25.99;48.03;100455.88;1727279;81;21035;-57
2022/05/30 03:10:46;;;;;;;32.60;17.10;;;;;;;26.06;47.36;100460.87;1710405;82;21063;-57
2022/05/30 03:13:13;;;;;;;34.13;18.70;;;;;;;26.20;47.25;100451.13;1719435;81;21942;-57
2022/05/30 03:15:40;;;;;;;32.10;18.17;;;;;;;26.14;47.45;100450.95;1721090;82;21066;-57
2022/05/30 03:18:09;;;;;;;33.67;17.90;;;;;;;26.32;47.28;100453.41;1718000;82;21434;-57
2022/05/30 03:20:37;;;;;;;32.37;18.23;;;;;;;26.85;46.28;100457.39;1725567;81;21051;-57
2022/05/30 03:23:06;;;;;;;34.13;18.40;;;;;;;27.18;44.89;100458.33;1720256;82;21533;-64
2022/05/30 03:25:51;;;;;;;30.57;16.90;;;;;;;27.34;44.20;100451.67;1726632;80;21414;-57
2022/05/30 03:28:19;;;;;;;31.90;17.70;;;;;;;27.54;43.06;100443.90;1721155;81;21000;-56
2022/05/30 03:30:46;;;;;;;29.37;17.47;;;;;;;26.93;43.87;100444.20;1716185;82;21245;-63
2022/05/30 03:33:15;;;;;;;33.50;18.00;;;;;;;26.86;44.19;100445.09;1715547;81;22333;-62
2022/05/30 03:35:42;;;;;;;33.80;18.93;;;;;;;27.49;42.94;100440.48;1718835;82;21552;-57
2022/05/30 03:38:20;;;;;;;34.37;18.50;;;;;;;27.77;42.30;100437.37;1617496;86;21052;-57
2022/05/30 03:40:57;;;;;;;36.63;21.10;;;;;;;27.71;42.27;100442.55;1650538;86;21167;-64
2022/05/30 03:43:42;;;;;;;37.63;22.47;;;;;;;27.84;42.13;100432.44;1705211;81;21853;-57
2022/05/30 03:46:10;;;;;;;42.47;22.40;;;;;;;27.64;42.24;100440.24;1741848;81;21003;-57
2022/05/30 03:48:38;;;;;;;41.80;23.10;;;;;;;27.74;42.16;100446.81;1734739;81;21055;-56
2022/05/30 03:51:06;;;;;;;38.97;22.27;;;;;;;27.61;41.93;100446.97;1717440;82;21114;-59
2022/05/30 03:53:34;;;;;;;42.97;25.63;;;;;;;27.99;41.91;100440.77;1720445;81;21205;-58
2022/05/30 03:56:01;;;;;;;49.10;27.13;;;;;;;28.28;40.97;100440.52;1719149;83;21412;-57
2022/05/30 03:58:28;;;;;;;45.03;27.33;;;;;;;28.58;40.05;100437.82;1707118;82;21022;-64
2022/05/30 04:00:55;;;;;;;42.77;26.83;;;;;;;28.58;39.98;100440.50;1718276;83;20992;-64
2022/05/30 04:03:23;;;;;;;52.37;28.40;;;;;;;28.70;39.69;100436.77;1718519;83;21098;-56
2022/05/30 04:05:52;;;;;;;47.07;28.40;;;;;;;28.83;39.45;100429.25;1719557;82;21046;-57
2022/05/30 04:08:20;;;;;;;47.57;27.97;;;;;;;29.12;38.41;100430.80;1734192;81;21854;-58
2022/05/30 04:10:55;;;;;;;42.43;27.17;;;;;;;28.94;38.21;100433.83;1695570;82;21518;-57
2022/05/30 04:13:31;;;;;;;47.97;27.33;;;;;;;29.16;37.94;100441.72;1716275;82;20959;-57
2022/05/30 04:16:16;;;;;;;43.70;24.77;;;;;;;29.29;37.88;100451.64;1718084;82;21502;-59
2022/05/30 04:18:44;;;;;;;45.20;25.27;;;;;;;29.25;37.83;100450.66;1731829;81;21147;-57
2022/05/30 04:21:12;;;;;;;38.00;22.47;;;;;;;29.29;37.59;100452.98;1720476;81;22279;-58
2022/05/30 04:23:42;;;;;;;37.70;23.57;;;;;;;29.50;37.31;100455.97;1726719;81;20980;-56
2022/05/30 04:26:14;;;;;;;37.70;23.60;;;;;;;29.44;37.21;100469.30;1716553;82;21047;-57
2022/05/30 04:28:43;;;;;;;38.20;21.87;;;;;;;29.50;37.40;100459.45;1727241;81;21423;-60
2022/05/30 04:31:15;;;;;;;38.03;19.13;;;;;;;29.68;37.46;100455.03;1708136;83;21002;-57
2022/05/30 04:33:43;;;;;;;27.37;17.97;;;;;;;30.06;36.56;100458.65;1718850;82;21167;-59
2022/05/30 04:36:12;;;;;;;19.83;14.37;;;;;;;30.34;36.50;100463.86;1719659;82;20979;-63
2022/05/30 04:38:41;;;;;;;17.97;12.07;;;;;;;30.58;35.69;100464.28;1695670;82;21463;-56
2022/05/30 04:41:16;;;;;;;20.43;11.97;;;;;;;30.75;35.25;100462.20;1738710;81;21218;-56
2022/05/30 04:43:49;;;;;;;15.88;11.10;;;;;;;30.92;35.24;100459.55;1690979;82;21078;-64
2022/05/30 04:46:30;;;;;;;15.93;10.87;;;;;;;31.01;34.93;100453.61;1706951;83;21296;-57
2022/05/30 04:48:59;;;;;;;15.60;10.68;;;;;;;31.04;35.33;100446.02;1717311;82;21369;-55
2022/05/30 04:51:27;;;;;;;18.37;10.55;;;;;;;31.47;34.46;100442.00;1731597;81;21072;-57
2022/05/30 04:53:55;;;;;;;15.38;10.98;;;;;;;31.65;34.28;100448.95;1745121;81;21038;-64
2022/05/30 04:56:33;;;;;;;13.48;9.98;;;;;;;32.03;33.68;100450.95;1728355;81;21333;-57
2022/05/30 04:59:04;;;;;;;;;;;;;;;32.40;33.53;100447.27;1730183;81;21146;-56
2022/05/30 05:01:32;;;;;;;14.07;10.75;;;;;;;32.80;32.34;100448.99;1738207;80;20181;-57
2022/05/30 05:03:59;;;;;;;17.52;11.35;;;;;;;32.78;32.21;100451.81;1735560;82;20960;-62
2022/05/30 05:06:27;;;;;;;16.77;11.43;;;;;;;32.85;31.93;100452.88;1739894;81;21148;-63
2022/05/30 05:09:05;;;;;;;16.32;11.15;;;;;;;33.05;31.80;100452.67;1699513;82;21334;-56
2022/05/30 05:11:36;;;;;;;17.15;11.65;;;;;;;33.12;31.78;100457.55;1731402;81;21392;-56
2022/05/30 05:14:19;;;;;;;18.98;12.37;;;;;;;33.38;31.32;100444.61;1727235;82;21398;-56
2022/05/30 05:17:06;;;;;;;17.12;12.13;;;;;;;33.66;30.83;100439.99;1722868;82;20988;-56
2022/05/30 05:19:33;;;;;;;15.15;10.82;;;;;;;33.76;30.82;100432.03;1724950;81;21004;-64
2022/05/30 05:22:00;;;;;;;16.52;10.88;;;;;;;33.78;30.49;100429.77;1728434;82;21133;-64
2022/05/30 05:24:28;;;;;;;14.90;10.32;;;;;;;33.64;30.76;100421.42;1723048;81;22080;-56
2022/05/30 05:27:04;;;;;;;15.75;10.98;;;;;;;33.70;30.72;100421.19;1695325;82;21081;-57
2022/05/30 05:29:31;;;;;;;15.18;10.63;;;;;;;33.89;30.47;100416.83;1729035;82;21552;-59
2022/05/30 05:31:59;;;;;;;16.45;10.75;;;;;;;33.98;30.37;100422.69;1730884;81;21039;-63
2022/05/30 05:34:26;;;;;;;14.28;10.78;;;;;;;34.59;29.54;100422.19;1727676;82;21058;-55
2022/05/30 05:36:53;;;;;;;13.78;10.80;;;;;;;34.59;29.54;100422.19;1733276;81;21880;-56
2022/05/30 05:39:20;;;;;;;15.25;10.40;;;;;;;34.51;29.77;100420.94;1731310;82;20889;-55
2022/05/30 05:41:55;;;;;;;15.55;10.48;;;;;;;34.53;29.34;100418.12;1726248;82;21010;-55
2022/05/30 05:44:22;;;;;;;14.47;10.58;;;;;;;34.46;29.63;100416.52;1723822;82;21727;-56
2022/05/30 05:46:49;;;;;;;13.32;9.38;;;;;;;34.63;29.74;100414.17;1690579;83;21153;-56
2022/05/30 05:49:18;;;;;;;16.02;10.20;;;;;;;34.85;29.35;100413.67;1733210;81;21362;-58
2022/05/30 05:51:45;;;;;;;11.93;9.80;;;;;;;35.03;29.01;100410.69;1723348;82;20984;-56
2022/05/30 05:54:13;;;;;;;13.18;9.45;;;;;;;35.03;29.01;100410.69;1728861;81;21093;-56
2022/05/30 05:56:40;;;;;;;12.10;9.65;;;;;;;35.32;29.07;100407.63;1732541;81;20962;-56
2022/05/30 05:59:12;;;;;;;12.90;9.98;;;;;;;35.36;29.02;100400.95;1717537;82;21115;-56
2022/05/30 06:01:39;;;;;;;12.70;9.78;;;;;;;35.41;28.75;100397.98;1715083;82;21153;-61
2022/05/30 06:04:07;;;;;;;13.05;9.75;;;;;;;35.96;28.19;100399.02;1712909;82;20996;-55
2022/05/30 06:06:44;;;;;;;15.25;9.55;;;;;;;35.77;28.33;100398.36;1714287;83;21134;-55
2022/05/30 06:09:13;;;;;;;11.95;9.15;;;;;;;36.02;28.31;100392.19;1712335;82;21572;-56
2022/05/30 06:11:44;;;;;;;12.20;8.63;;;;;;;36.63;27.32;100392.79;1717746;82;20932;-64
2022/05/30 06:14:11;;;;;;;12.18;9.73;;;;;;;36.63;27.32;100392.79;1718908;83;21518;-55
2022/05/30 06:16:42;;;;;;;13.83;9.55;;;;;;;36.60;26.93;100386.16;1729910;81;21071;-56
2022/05/30 06:19:12;;;;;;;11.08;9.45;;;;;;;36.48;27.20;100382.20;1732289;81;21138;-56
2022/05/30 06:21:40;;;;;;;13.62;9.43;;;;;;;36.68;27.08;100385.73;1729677;81;20947;-57
2022/05/30 06:24:12;;;;;;;14.58;10.32;;;;;;;36.46;27.14;100389.35;1727076;81;21001;-56
2022/05/30 06:26:46;;;;;;;13.85;9.08;;;;;;;35.80;27.95;100382.75;1732985;81;21129;-55
2022/05/30 06:29:21;;;;;;;12.30;8.53;;;;;;;35.65;28.08;100390.86;1723730;81;21109;-61
2022/05/30 06:31:49;;;;;;;13.18;8.90;;;;;;;35.67;27.92;100392.09;1721029;82;22057;-55
2022/05/30 06:34:17;;;;;;;12.25;8.38;;;;;;;35.49;28.31;100383.50;1719981;82;20928;-56
2022/05/30 06:36:46;;;;;;;14.13;9.10;;;;;;;35.52;28.31;100382.81;1720397;82;21065;-56
2022/05/30 06:39:14;;;;;;;10.32;8.20;;;;;;;35.66;28.56;100384.32;1724240;81;21215;-63
2022/05/30 06:41:43;;;;;;;12.10;8.77;;;;;;;36.05;28.86;100383.36;1725040;81;21042;-56
2022/05/30 06:44:11;;;;;;;9.80;7.83;;;;;;;36.41;28.20;100379.32;1720453;82;21040;-56
2022/05/30 06:46:57;;;;;;;12.15;7.83;;;;;;;36.48;27.58;100369.43;1719100;83;21005;-60
2022/05/30 06:49:44;;;;;;;11.85;7.40;;;;;;;36.82;27.43;100376.50;1715905;82;21081;-58
2022/05/30 06:52:13;;;;;;;9.35;6.20;;;;;;;37.13;26.60;100385.69;1728652;81;21154;-56
2022/05/30 06:54:40;;;;;;;7.92;6.53;;;;;;;36.72;26.98;100379.80;1721279;81;21114;-57
2022/05/30 06:59:54;;;;;;;9.65;6.67;;;;;;;36.44;27.37;100378.02;1726177;81;20983;-56
2022/05/30 07:02:22;;;;;;;9.30;5.83;;;;;;;36.28;27.60;100373.98;1726737;81;21054;-58
2022/05/30 07:04:58;;;;;;;7.17;5.65;;;;;;;36.38;27.24;100373.23;1725656;81;21126;-61
2022/05/30 07:07:46;;;;;;;9.03;6.60;;;;;;;36.19;27.82;100379.41;1721289;81;21493;-57
2022/05/30 07:10:35;;;;;;;10.38;6.67;;;;;;;36.30;27.96;100368.22;1711489;81;21055;-58
2022/05/30 07:13:05;;;;;;;11.12;5.97;;;;;;;36.64;27.75;100368.58;1718844;81;21015;-58
2022/05/30 07:15:35;;;;;;;8.60;5.85;;;;;;;36.73;27.53;100369.15;1724767;81;21085;-58
2022/05/30 07:18:10;;;;;;;6.20;5.00;;;;;;;36.88;26.92;100380.52;1746661;81;21413;-63
2022/05/30 07:20:38;;;;;;;9.03;5.90;;;;;;;36.82;27.00;100384.65;1722282;81;22125;-58
2022/05/30 07:23:13;;;;;;;9.88;6.10;;;;;;;36.35;26.86;100384.23;1714743;83;21110;-57
2022/05/30 07:25:46;;;;;;;9.33;5.78;;;;;;;36.35;26.86;100384.23;1670794;82;21114;-59
2022/05/30 07:28:16;;;;;;;8.28;6.05;;;;;;;36.19;27.72;100385.63;1718741;83;21058;-58
2022/05/30 07:31:07;;;;;;;7.42;4.95;;;;;;;36.20;27.72;100389.91;1718552;82;21153;-64
2022/05/30 07:33:53;;;;;;;9.60;5.62;;;;;;;36.06;27.44;100386.28;1718133;82;21066;-56
2022/05/30 07:36:41;;;;;;;10.40;5.17;;;;;;;36.19;27.79;100386.20;1718648;81;20940;-64
2022/05/30 07:39:13;;;;;;;9.98;4.83;;;;;;;36.60;27.11;100386.73;1721694;81;21394;-61
2022/05/30 07:41:45;;;;;;;8.93;6.20;;;;;;;36.63;26.98;100387.36;1718541;82;20995;-56
2022/05/30 07:44:20;;;;;;;8.95;6.33;;;;;;;36.65;27.48;100379.08;1736029;81;21117;-56
2022/05/30 07:47:07;;;;;;;9.48;6.70;;;;;;;36.97;27.69;100376.23;1723404;81;21318;-57
2022/05/30 07:49:54;;;;;;;8.13;4.83;;;;;;;37.26;27.44;100375.63;1719402;83;21514;-57
2022/05/30 07:52:35;;;;;;;6.72;4.25;;;;;;;37.58;26.73;100372.73;1709906;82;21036;-60
2022/05/30 07:55:02;;;;;;;6.87;4.55;;;;;;;37.90;26.12;100369.18;1722677;81;21078;-57
2022/05/30 08:00:22;;;;;;;9.50;5.62;;;;;;;38.12;25.84;100367.56;1727693;81;21084;-56
2022/05/30 08:02:52;;;;;;;8.08;5.17;;;;;;;37.95;26.08;100367.50;1742868;81;21525;-56
2022/05/30 08:05:21;;;;;;;9.83;4.97;;;;;;;37.73;26.33;100367.73;1727144;81;21025;-56
2022/05/30 08:07:59;;;;;;;7.90;5.30;;;;;;;37.96;26.21;100376.44;1711349;81;21113;-56
2022/05/30 08:10:31;;;;;;;7.75;5.20;;;;;;;38.08;26.12;100376.26;1717930;81;21182;-57
2022/05/30 08:12:59;;;;;;;7.85;5.42;;;;;;;38.12;26.44;100366.78;1728904;81;21113;-56
2022/05/30 08:15:31;;;;;;;7.05;5.53;;;;;;;38.33;26.37;100367.64;1713468;81;21048;-63
2022/05/30 08:18:05;;;;;;;9.13;5.95;;;;;;;38.56;25.53;100368.94;1744057;81;21402;-57
2022/05/30 08:20:34;;;;;;;6.55;5.00;;;;;;;38.63;25.32;100363.58;1729218;81;21089;-57
2022/05/30 08:23:03;;;;;;;7.62;5.00;;;;;;;38.48;25.16;100368.06;1729025;81;21248;-56
2022/05/30 08:25:31;;;;;;;6.58;5.15;;;;;;;38.29;25.85;100353.20;1732135;81;21084;-65
2022/05/30 08:27:58;;;;;;;7.78;5.45;;;;;;;38.37;25.55;100358.39;1712948;82;20992;-57
2022/05/30 08:30:25;;;;;;;7.87;5.28;;;;;;;38.43;25.67;100358.87;1703987;82;21040;-57
2022/05/30 08:32:54;;;;;;;9.23;5.78;;;;;;;38.66;26.14;100356.03;1702044;82;21494;-57
2022/05/30 08:35:23;;;;;;;8.08;5.53;;;;;;;38.94;25.44;100367.86;1707186;82;22218;-56
2022/05/30 08:37:57;;;;;;;10.58;5.55;;;;;;;38.94;25.44;100367.86;1745973;81;21041;-57
2022/05/30 08:43:26;;;;;;;10.03;6.08;;;;;;;39.04;24.76;100369.14;1716900;82;21054;-63
2022/05/30 08:46:09;;;;;;;7.47;5.03;;;;;;;39.08;24.67;100361.78;1723278;81;21075;-56
2022/05/30 08:48:46;;;;;;;7.37;4.53;;;;;;;39.24;24.96;100362.94;1694789;81;21109;-55
2022/05/30 08:51:21;;;;;;;7.85;5.25;;;;;;;39.53;24.27;100357.94;1722450;81;20940;-57
2022/05/30 08:54:16;;;;;;;8.85;5.20;;;;;;;39.65;24.24;100354.12;1740748;81;21053;-58
2022/05/30 08:56:47;;;;;;;9.43;5.40;;;;;;;39.63;24.29;100357.25;1721240;82;21081;-56
2022/05/30 09:00:04;;;;;;;9.43;6.37;;;;;;;39.54;24.20;100362.23;1687259;82;21098;-59
2022/05/30 09:02:39;;;;;;;10.48;6.62;;;;;;;39.17;24.19;100364.98;1716541;81;21141;-56
2022/05/30 09:05:18;;;;;;;10.68;5.78;;;;;;;38.91;25.23;100360.45;1725526;81;21030;-62
2022/05/30 09:07:53;;;;;;;8.68;5.80;;;;;;;38.96;25.02;100357.96;1740750;81;21014;-63
2022/05/30 09:10:35;;;;;;;9.08;5.85;;;;;;;39.31;24.86;100347.42;1723792;81;21082;-57
2022/05/30 09:13:22;;;;;;;6.95;4.95;;;;;;;39.54;24.65;100347.22;1742143;81;21023;-57
2022/05/30 09:16:32;;;;;;;8.18;4.83;;;;;;;39.82;24.50;100346.70;1718976;83;21155;-63
2022/05/30 09:19:02;;;;;;;6.42;4.83;;;;;;;39.73;24.28;100359.88;1712416;82;21015;-57
2022/05/30 09:21:30;;;;;;;6.62;4.78;;;;;;;39.50;24.64;100349.72;1694067;81;20989;-56
2022/05/30 09:23:58;;;;;;;7.15;4.33;;;;;;;39.37;24.58;100350.02;1712284;81;21510;-63
2022/05/30 09:26:28;;;;;;;5.72;3.90;;;;;;;39.52;24.59;100348.20;1735662;81;21081;-57
2022/05/30 09:29:04;;;;;;;6.50;3.65;;;;;;;39.84;23.64;100351.77;1748436;81;21755;-57
2022/05/30 09:32:08;;;;;;;6.97;3.95;;;;;;;39.94;23.35;100355.73;1738187;81;21544;-63
2022/05/30 09:34:49;;;;;;;5.97;4.53;;;;;;;40.10;23.49;100352.13;1733847;81;21057;-56
2022/05/30 09:37:39;;;;;;;6.97;3.65;;;;;;;40.46;22.84;100350.39;1719221;81;20972;-59
2022/05/30 09:40:24;;;;;;;6.15;3.58;;;;;;;40.75;22.47;100341.72;1637604;85;21030;-61
2022/05/30 09:43:06;;;;;;;6.17;4.00;;;;;;;41.12;22.37;100345.34;1659352;83;21458;-63
2022/05/30 09:45:35;;;;;;;5.58;3.50;;;;;;;41.30;22.08;100346.15;1718188;83;21065;-56
2022/05/30 09:48:14;;;;;;;5.00;3.85;;;;;;;41.60;21.42;100338.95;1720522;82;21480;-56
2022/05/30 09:50:54;;;;;;;4.97;3.33;;;;;;;41.51;21.44;100335.80;1723710;81;21339;-60
2022/05/30 09:53:44;;;;;;;5.15;4.08;;;;;;;41.56;21.50;100339.50;1731016;81;21045;-56
2022/05/30 09:56:15;;;;;;;6.20;3.75;;;;;;;41.36;21.42;100343.20;1721222;81;21792;-56
2022/05/30 09:58:46;;;;;;;8.05;6.35;;;;;;;41.46;21.72;100332.11;1695331;83;21557;-58
2022/05/30 10:01:25;;;;;;;8.50;3.58;;;;;;;41.81;21.24;100329.31;1706317;81;21047;-56
2022/05/30 10:03:59;;;;;;;5.40;3.10;;;;;;;42.02;21.31;100331.85;1708818;81;21038;-56
2022/05/30 10:06:25;;;;;;;;;;;;;;;41.58;21.02;100327.59;1732623;81;21082;-57
2022/05/30 10:09:13;;;;;;;4.07;2.90;;;;;;;41.45;21.15;100328.59;1723197;81;21122;-55
2022/05/30 10:11:43;;;;;;;5.78;4.20;;;;;;;40.99;21.81;100321.68;1719351;82;21604;-57
2022/05/30 10:14:24;;;;;;;9.60;8.58;;;;;;;40.54;21.85;100328.75;1718083;82;20950;-56
2022/05/30 10:17:26;;;;;;;6.75;3.30;;;;;;;40.90;21.41;100324.77;1709829;83;21217;-58
2022/05/30 10:19:50;;;;;;;5.47;3.40;;;;;;;40.54;21.36;100330.71;1723117;81;21640;-56
2022/05/30 10:28:52;;;;;;;4.62;2.67;;;;;;;41.55;21.06;100318.20;1725747;81;22157;-57
2022/05/30 10:31:38;;;;;;;6.60;3.75;;;;;;;41.85;20.90;100309.39;1707417;82;21073;-56
2022/05/30 10:34:19;;;;;;;6.33;3.02;;;;;;;41.98;20.98;100311.33;1727313;81;21663;-58
2022/05/30 10:37:07;;;;;;;5.58;3.52;;;;;;;42.01;20.62;100304.25;1720422;81;21336;-58
2022/05/30 10:39:58;;;;;;;4.65;3.02;;;;;;;41.95;20.79;100296.27;1720161;81;21580;-56
2022/05/30 10:42:52;;;;;;;5.33;3.22;;;;;;;41.75;20.84;100302.16;1732947;81;20989;-57
2022/05/30 10:45:43;;;;;;;7.75;3.60;;;;;;;41.13;21.31;100293.58;1735626;81;20944;-58
2022/05/30 10:48:19;;;;;;;7.55;3.62;;;;;;;41.02;21.28;100297.08;1718505;83;21454;-58
2022/05/30 10:51:06;;;;;;;6.47;3.72;;;;;;;40.73;21.91;100301.70;1708687;81;21807;-58
2022/05/30 10:53:56;;;;;;;5.22;3.10;;;;;;;40.82;21.75;100302.70;1714404;81;21063;-58
2022/05/30 10:56:37;;;;;;;6.30;3.17;;;;;;;40.88;21.42;100294.87;1727466;81;21047;-57
2022/05/30 10:59:31;;;;;;;7.65;3.10;;;;;;;40.96;21.17;100297.25;1731686;81;20987;-57
2022/05/30 11:02:27;;;;;;;6.67;3.17;;;;;;;40.85;21.25;100294.50;1728770;81;20986;-64
2022/05/30 11:05:14;;;;;;;5.70;3.30;;;;;;;41.29;21.06;100282.42;1733423;81;21867;-56
2022/05/30 11:07:52;;;;;;;7.83;3.30;;;;;;;41.43;20.61;100279.53;1718439;82;20940;-64
2022/05/30 11:10:48;;;;;;;5.85;3.20;;;;;;;41.38;21.70;100281.27;1736972;80;21078;-56
2022/05/30 11:13:52;;;;;;;6.33;3.58;;;;;;;41.63;20.71;100275.19;1729588;81;20952;-63
2022/05/30 11:16:41;;;;;;;6.47;3.12;;;;;;;41.49;21.10;100279.34;1737213;81;21591;-61
2022/05/30 11:19:59;;;;;;;4.90;3.17;;;;;;;41.54;20.63;100278.93;1739484;81;21274;-55
2022/05/30 11:22:43;;;;;;;5.65;3.27;;;;;;;42.05;20.91;100270.78;1721800;81;21457;-57
2022/05/30 11:25:15;;;;;;;7.75;3.12;;;;;;;42.34;20.35;100273.44;1718455;82;21078;-60
2022/05/30 11:28:16;;;;;;;5.97;3.67;;;;;;;42.18;20.24;100262.92;1719384;82;21516;-60
2022/05/30 11:31:08;;;;;;;6.75;3.20;;;;;;;41.89;20.50;100267.73;1710095;83;21074;-55
2022/05/30 11:33:54;;;;;;;6.03;3.33;;;;;;;41.36;20.86;100272.07;1711869;83;21428;-56
2022/05/30 11:36:56;;;;;;;5.45;3.37;;;;;;;40.60;21.47;100271.21;1688387;81;21579;-62
2022/05/30 11:40:06;;;;;;;8.15;3.47;;;;;;;40.18;22.00;100266.96;1720920;81;21340;-56
2022/05/30 11:42:47;;;;;;;7.12;3.20;;;;;;;40.04;22.11;100262.18;1717412;83;21092;-57
2022/05/30 11:45:25;;;;;;;6.17;3.22;;;;;;;40.16;21.97;100249.61;1717287;82;21121;-65
2022/05/30 11:48:36;;;;;;;6.55;3.05;;;;;;;40.37;22.10;100252.98;1728505;82;21234;-55
2022/05/30 11:51:24;;;;;;;9.58;3.40;;;;;;;40.30;21.87;100254.31;1723859;82;22115;-58
2022/05/30 11:54:09;;;;;;;5.22;3.50;;;;;;;40.01;22.19;100252.83;1718779;82;21126;-58
2022/05/30 11:57:00;;;;;;;6.70;4.12;;;;;;;40.01;22.19;100252.83;1708301;83;21153;-57
2022/05/30 11:59:35;;;;;;;;;;;;;;;40.09;22.63;100248.95;1723661;82;21211;-57
2022/05/30 12:02:04;;;;;;;6.80;3.47;;;;;;;39.64;22.31;100247.53;1719806;83;21123;-58
2022/05/30 12:05:02;;;;;;;5.92;3.75;;;;;;;39.64;22.31;100247.53;1735569;81;21480;-57
2022/05/30 12:08:06;;;;;;;4.62;3.27;;;;;;;39.31;22.80;100249.25;1704329;82;21063;-61
2022/05/30 12:10:45;;;;;;;6.45;3.15;;;;;;;39.04;23.29;100243.16;1746301;81;21508;-58
2022/05/30 12:13:31;;;;;;;8.58;3.92;;;;;;;39.48;23.10;100249.19;1739291;80;21513;-57
2022/05/30 12:16:14;;;;;;;6.03;3.00;;;;;;;39.57;22.74;100252.94;1735600;81;21297;-59